createdAt,value
2017-10-05T00:00:33.198Z,98570.99
2017-10-05T00:03:00.715Z,98572.52
2017-10-05T00:05:28.218Z,98574.95
2017-10-05T00:07:55.724Z,98569.53
2017-10-05T00:10:23.258Z,98573.07
2017-10-05T00:12:50.788Z,98580.20
2017-10-05T00:15:18.293Z,98574.77
2017-10-05T00:17:45.803Z,98575.06
2017-10-05T00:20:13.333Z,98562.86
2017-10-05T00:22:40.839Z,98558.28
2017-10-05T00:25:08.351Z,98551.41
2017-10-05T00:27:35.867Z,98545.49
2017-10-05T00:30:03.399Z,98541.27
2017-10-05T00:32:30.925Z,98534.38
2017-10-05T00:34:58.432Z,98539.51
2017-10-05T00:37:25.943Z,98534.16
2017-10-05T00:39:53.450Z,98526.84
2017-10-05T00:42:20.972Z,98531.71
2017-10-05T00:44:48.472Z,98532.63
2017-10-05T00:47:15.984Z,98525.34
2017-10-05T00:49:43.480Z,98520.70
2017-10-05T00:52:10.984Z,98513.14
2017-10-05T00:54:38.507Z,98505.36
2017-10-05T00:57:06.019Z,98495.62
2017-10-05T00:59:33.527Z,98493.69
2017-10-05T01:02:01.064Z,98492.65
2017-10-05T01:04:28.570Z,98492.28
2017-10-05T01:06:56.070Z,98483.33
2017-10-05T01:09:23.572Z,98481.97
2017-10-05T01:11:51.120Z,98474.17
2017-10-05T01:14:18.678Z,98477.80
2017-10-05T01:16:46.243Z,98482.16
2017-10-05T01:19:13.743Z,98481.05
2017-10-05T01:21:41.269Z,98478.32
2017-10-05T01:24:08.787Z,98473.30
2017-10-05T01:26:36.390Z,98469.27
2017-10-05T01:29:03.886Z,98455.15
2017-10-05T01:31:31.387Z,98448.47
2017-10-05T01:33:58.904Z,98439.59
2017-10-05T01:36:26.429Z,98427.11
2017-10-05T01:38:53.927Z,98429.40
2017-10-05T01:41:21.435Z,98430.95
2017-10-05T01:43:48.936Z,98421.52
2017-10-05T01:46:16.446Z,98422.72
2017-10-05T01:48:43.964Z,98414.85
2017-10-05T01:51:11.465Z,98413.44
2017-10-05T01:53:39.000Z,98405.14
2017-10-05T01:56:06.503Z,98401.27
2017-10-05T01:58:34.023Z,98391.35
2017-10-05T02:01:01.638Z,98391.10
2017-10-05T02:03:29.144Z,98389.14
2017-10-05T02:05:56.650Z,98386.44
2017-10-05T02:08:24.168Z,98382.14
2017-10-05T02:10:51.695Z,98384.11
2017-10-05T02:13:19.195Z,98375.33
2017-10-05T02:15:46.704Z,98368.44
2017-10-05T02:18:14.206Z,98359.61
2017-10-05T02:20:41.710Z,98353.84
2017-10-05T02:23:09.215Z,98342.40
2017-10-05T02:25:36.738Z,98343.84
2017-10-05T02:28:04.243Z,98336.53
2017-10-05T02:30:31.746Z,98328.70
2017-10-05T02:32:59.263Z,98325.12
2017-10-05T02:35:26.785Z,98326.88
2017-10-05T02:37:54.283Z,98316.75
2017-10-05T02:40:21.767Z,98321.85
2017-10-05T02:42:49.373Z,98310.00
2017-10-05T02:45:16.888Z,98299.44
2017-10-05T02:47:44.439Z,98297.95
2017-10-05T02:50:11.943Z,98284.33
2017-10-05T02:52:39.442Z,98289.25
2017-10-05T02:55:06.964Z,98284.05
2017-10-05T02:57:34.509Z,98280.06
2017-10-05T03:00:02.032Z,98285.39
2017-10-05T03:02:29.543Z,98280.09
2017-10-05T03:04:57.083Z,98280.09
2017-10-05T03:07:24.578Z,98271.34
2017-10-05T03:09:52.108Z,98262.08
2017-10-05T03:12:19.615Z,98259.58
2017-10-05T03:14:47.111Z,98254.20
2017-10-05T03:17:14.625Z,98257.04
2017-10-05T03:19:42.195Z,98251.68
2017-10-05T03:22:09.703Z,98239.73
2017-10-05T03:24:37.208Z,98240.30
2017-10-05T03:27:04.720Z,98232.98
2017-10-05T03:29:32.227Z,98228.77
2017-10-05T03:31:59.794Z,98230.51
2017-10-05T03:34:27.313Z,98237.30
2017-10-05T03:36:54.840Z,98245.19
2017-10-05T03:39:22.340Z,98246.80
2017-10-05T03:41:49.870Z,98237.83
2017-10-05T03:44:17.367Z,98236.03
2017-10-05T03:46:44.878Z,98233.69
2017-10-05T03:49:12.389Z,98226.88
2017-10-05T03:51:39.896Z,98226.05
2017-10-05T03:54:07.677Z,98218.39
2017-10-05T03:56:35.174Z,98200.81
2017-10-05T03:59:02.764Z,98193.34
2017-10-05T04:01:30.275Z,98197.73
2017-10-05T04:03:57.766Z,98193.59
2017-10-05T04:06:25.258Z,98193.23
2017-10-05T04:08:52.777Z,98191.42
2017-10-05T04:11:20.291Z,98183.80
2017-10-05T04:13:47.792Z,98187.76
2017-10-05T04:16:16.154Z,98190.75
2017-10-05T04:18:43.646Z,98191.62
2017-10-05T04:21:11.169Z,98181.33
2017-10-05T04:23:39.568Z,98171.25
2017-10-05T04:26:07.070Z,98160.84
2017-10-05T04:28:34.578Z,98160.80
2017-10-05T04:31:02.102Z,98164.84
2017-10-05T04:33:29.631Z,98153.41
2017-10-05T04:35:57.126Z,98151.52
2017-10-05T04:38:24.632Z,98134.72
2017-10-05T04:40:52.304Z,98129.53
2017-10-05T04:43:19.858Z,98131.66
2017-10-05T04:45:47.367Z,98125.72
2017-10-05T04:48:14.868Z,98130.62
2017-10-05T04:50:42.404Z,98132.62
2017-10-05T04:53:09.915Z,98128.01
2017-10-05T04:55:37.447Z,98128.05
2017-10-05T04:58:04.969Z,98124.84
2017-10-05T05:00:32.484Z,98113.42
2017-10-05T05:03:00.012Z,98109.63
2017-10-05T05:05:27.542Z,98102.78
2017-10-05T05:07:55.090Z,98097.12
2017-10-05T05:10:22.612Z,98100.53
2017-10-05T05:12:50.109Z,98095.84
2017-10-05T05:15:17.607Z,98100.25
2017-10-05T05:17:45.107Z,98102.86
2017-10-05T05:20:12.616Z,98103.09
2017-10-05T05:22:40.114Z,98098.09
2017-10-05T05:25:07.634Z,98097.26
2017-10-05T05:27:36.509Z,98095.91
2017-10-05T05:30:04.061Z,98102.95
2017-10-05T05:32:31.570Z,98103.64
2017-10-05T05:34:59.706Z,98102.42
2017-10-05T05:37:29.762Z,98096.39
2017-10-05T05:39:57.285Z,98094.94
2017-10-05T05:42:24.801Z,98099.11
2017-10-05T05:44:52.303Z,98100.67
2017-10-05T05:47:19.832Z,98094.84
2017-10-05T05:49:47.379Z,98094.70
2017-10-05T05:52:14.888Z,98081.58
2017-10-05T05:54:42.392Z,98079.92
2017-10-05T05:57:09.896Z,98074.91
2017-10-05T05:59:37.434Z,98076.62
2017-10-05T06:02:05.083Z,98073.97
2017-10-05T06:04:32.594Z,98068.75
2017-10-05T06:07:00.108Z,98059.99
2017-10-05T06:09:27.605Z,98066.49
2017-10-05T06:11:55.117Z,98059.24
2017-10-05T06:14:22.635Z,98060.59
2017-10-05T06:16:55.286Z,98054.59
2017-10-05T06:19:22.816Z,98054.88
2017-10-05T06:21:50.328Z,98056.66
2017-10-05T06:24:17.852Z,98056.05
2017-10-05T06:26:45.370Z,98054.68
2017-10-05T06:29:12.883Z,98052.89
2017-10-05T06:31:40.400Z,98055.33
2017-10-05T06:34:07.902Z,98043.42
2017-10-05T06:36:35.426Z,98046.44
2017-10-05T06:39:02.934Z,98034.63
2017-10-05T06:41:30.447Z,98039.45
2017-10-05T06:43:57.966Z,98033.91
2017-10-05T06:46:25.470Z,98033.48
2017-10-05T06:48:52.999Z,98026.38
2017-10-05T06:51:20.546Z,98024.13
2017-10-05T06:53:48.081Z,98016.34
2017-10-05T06:56:15.620Z,98010.57
2017-10-05T06:58:43.135Z,98008.97
2017-10-05T07:01:10.666Z,98000.84
2017-10-05T07:03:38.248Z,97987.31
2017-10-05T07:06:05.746Z,98002.18
2017-10-05T07:08:33.254Z,97985.87
2017-10-05T07:11:00.767Z,97980.87
2017-10-05T07:13:28.294Z,97981.70
2017-10-05T07:15:55.814Z,97970.09
2017-10-05T07:18:23.325Z,97960.08
2017-10-05T07:20:50.981Z,97965.64
2017-10-05T07:23:18.518Z,97958.59
2017-10-05T07:25:46.030Z,97982.67
2017-10-05T07:28:13.567Z,97985.15
2017-10-05T07:30:41.078Z,97977.53
2017-10-05T07:33:08.601Z,97970.50
2017-10-05T07:35:36.124Z,97972.80
2017-10-05T07:38:03.646Z,97967.34
2017-10-05T07:40:31.155Z,97964.14
2017-10-05T07:42:58.660Z,97964.12
2017-10-05T07:45:26.183Z,97948.50
2017-10-05T07:47:53.703Z,97960.66
2017-10-05T07:50:21.224Z,97953.09
2017-10-05T07:52:48.840Z,97940.88
2017-10-05T07:55:16.351Z,97947.41
2017-10-05T07:57:43.878Z,97929.50
2017-10-05T08:00:11.413Z,97941.61
2017-10-05T08:02:38.911Z,97942.81
2017-10-05T08:05:06.408Z,97941.70
2017-10-05T08:07:33.904Z,97947.11
2017-10-05T08:10:01.432Z,97945.08
2017-10-05T08:12:28.941Z,97938.38
2017-10-05T08:14:56.483Z,97935.91
2017-10-05T08:17:23.983Z,97944.23
2017-10-05T08:19:51.494Z,97936.58
2017-10-05T08:22:19.027Z,97943.90
2017-10-05T08:24:46.556Z,97934.73
2017-10-05T08:27:14.060Z,97939.12
2017-10-05T08:29:41.579Z,97938.88
2017-10-05T08:32:09.098Z,97939.19
2017-10-05T08:34:36.624Z,97955.11
2017-10-05T08:37:04.185Z,97955.98
2017-10-05T08:39:31.738Z,97957.17
2017-10-05T08:41:59.247Z,97955.23
2017-10-05T08:44:26.752Z,97952.04
2017-10-05T08:46:54.272Z,97957.16
2017-10-05T08:49:21.805Z,97951.42
2017-10-05T08:51:49.316Z,97949.54
2017-10-05T08:54:16.824Z,97940.15
2017-10-05T08:56:44.331Z,97929.52
2017-10-05T08:59:11.838Z,97923.72
2017-10-05T09:01:39.350Z,97922.38
2017-10-05T09:04:06.887Z,97923.72
2017-10-05T09:06:34.394Z,97913.55
2017-10-05T09:09:01.918Z,97916.19
2017-10-05T09:11:29.432Z,97922.09
2017-10-05T09:13:57.004Z,97913.53
2017-10-05T09:16:24.505Z,97906.77
2017-10-05T09:18:52.024Z,97899.28
2017-10-05T09:21:19.528Z,97894.52
2017-10-05T09:23:47.079Z,97885.26
2017-10-05T09:26:14.597Z,97894.31
2017-10-05T09:28:42.199Z,97890.84
2017-10-05T09:31:09.741Z,97893.89
2017-10-05T09:33:37.257Z,97883.21
2017-10-05T09:36:04.759Z,97878.92
2017-10-05T09:38:32.274Z,97883.52
2017-10-05T09:40:59.786Z,97873.39
2017-10-05T09:43:27.287Z,97875.41
2017-10-05T09:45:54.842Z,97862.94
2017-10-05T09:48:22.376Z,97866.46
2017-10-05T09:50:49.891Z,97863.78
2017-10-05T09:53:17.433Z,97863.15
2017-10-05T09:55:44.958Z,97857.32
2017-10-05T09:58:12.470Z,97849.89
2017-10-05T10:00:40.015Z,97847.72
2017-10-05T10:03:07.521Z,97845.94
2017-10-05T10:05:35.051Z,97849.31
2017-10-05T10:08:02.559Z,97853.98
2017-10-05T10:10:30.087Z,97851.81
2017-10-05T10:12:57.619Z,97845.73
2017-10-05T10:15:25.135Z,97849.20
2017-10-05T10:17:52.655Z,97850.80
2017-10-05T10:20:20.176Z,97855.74
2017-10-05T10:22:47.700Z,97836.90
2017-10-05T10:25:15.207Z,97825.77
2017-10-05T10:27:42.723Z,97819.83
2017-10-05T10:30:10.234Z,97811.31
2017-10-05T10:32:37.762Z,97798.58
2017-10-05T10:35:05.360Z,97809.63
2017-10-05T10:37:32.880Z,97807.66
2017-10-05T10:40:00.382Z,97823.88
2017-10-05T10:42:27.901Z,97800.14
2017-10-05T10:44:55.412Z,97798.13
2017-10-05T10:47:22.923Z,97796.39
2017-10-05T10:49:50.468Z,97788.07
2017-10-05T10:52:17.986Z,97796.55
2017-10-05T10:54:45.504Z,97782.45
2017-10-05T10:57:13.024Z,97781.55
2017-10-05T10:59:40.553Z,97784.42
2017-10-05T11:02:08.066Z,97777.19
2017-10-05T11:04:35.571Z,97777.02
2017-10-05T11:07:03.095Z,97775.52
2017-10-05T11:09:30.592Z,97761.71
2017-10-05T11:11:58.094Z,97761.93
2017-10-05T11:14:25.616Z,97756.02
2017-10-05T11:16:53.119Z,97749.69
2017-10-05T11:19:20.631Z,97740.28
2017-10-05T11:21:48.158Z,97741.42
2017-10-05T11:24:15.795Z,97735.95
2017-10-05T11:26:43.590Z,97728.04
2017-10-05T11:29:11.122Z,97708.33
2017-10-05T11:31:38.652Z,97703.46
2017-10-05T11:34:06.264Z,97708.75
2017-10-05T11:36:33.782Z,97681.63
2017-10-05T11:39:01.303Z,97685.02
2017-10-05T11:41:28.813Z,97690.38
2017-10-05T11:43:56.338Z,97686.92
2017-10-05T11:46:23.863Z,97669.91
2017-10-05T11:48:51.389Z,97667.27
2017-10-05T11:51:18.900Z,97662.80
2017-10-05T11:53:46.417Z,97653.50
2017-10-05T11:56:13.954Z,97643.38
2017-10-05T11:58:41.472Z,97659.17
2017-10-05T12:01:08.976Z,97648.20
2017-10-05T12:03:36.485Z,97642.25
2017-10-05T12:06:03.998Z,97646.92
2017-10-05T12:08:31.547Z,97652.89
2017-10-05T12:10:59.066Z,97654.86
2017-10-05T12:13:26.682Z,97658.72
2017-10-05T12:15:54.207Z,97651.49
2017-10-05T12:18:21.723Z,97661.89
2017-10-05T12:20:49.245Z,97649.02
2017-10-05T12:23:16.806Z,97641.73
2017-10-05T12:25:44.320Z,97639.72
2017-10-05T12:28:11.829Z,97616.64
2017-10-05T12:30:46.876Z,97619.31
2017-10-05T12:33:14.390Z,97609.78
2017-10-05T12:35:41.969Z,97615.70
2017-10-05T12:38:09.497Z,97623.69
2017-10-05T12:40:37.015Z,97618.34
2017-10-05T12:43:04.526Z,97614.81
2017-10-05T12:45:32.034Z,97626.06
2017-10-05T12:47:59.556Z,97599.90
2017-10-05T12:50:27.106Z,97612.23
2017-10-05T12:52:54.624Z,97621.14
2017-10-05T12:55:22.135Z,97616.97
2017-10-05T12:57:49.688Z,97612.73
2017-10-05T13:00:17.224Z,97608.34
2017-10-05T13:02:44.736Z,97625.05
2017-10-05T13:05:12.241Z,97616.14
2017-10-05T13:07:39.751Z,97628.13
2017-10-05T13:10:07.280Z,97625.76
2017-10-05T13:12:34.791Z,97622.49
2017-10-05T13:15:02.304Z,97613.33
2017-10-05T13:17:29.846Z,97636.09
2017-10-05T13:19:57.351Z,97611.49
2017-10-05T13:22:24.857Z,97623.70
2017-10-05T13:24:52.367Z,97622.05
2017-10-05T13:27:19.880Z,97617.22
2017-10-05T13:29:47.396Z,97631.23
2017-10-05T13:32:15.004Z,97612.02
2017-10-05T13:34:42.530Z,97624.39
2017-10-05T13:37:10.049Z,97615.21
2017-10-05T13:39:37.589Z,97639.52
2017-10-05T13:42:05.100Z,97653.09
2017-10-05T13:44:32.636Z,97650.15
2017-10-05T13:47:00.163Z,97661.91
2017-10-05T13:49:27.672Z,97668.62
2017-10-05T13:51:55.194Z,97674.19
2017-10-05T13:54:22.735Z,97661.92
2017-10-05T13:56:50.244Z,97672.27
2017-10-05T13:59:17.781Z,97663.31
2017-10-05T14:01:45.304Z,97666.69
2017-10-05T14:04:12.810Z,97678.84
2017-10-05T14:06:40.344Z,97676.86
2017-10-05T14:09:07.863Z,97669.97
2017-10-05T14:11:35.416Z,97677.55
2017-10-05T14:14:02.919Z,97673.73
2017-10-05T14:16:30.424Z,97683.59
2017-10-05T14:18:57.928Z,97692.02
2017-10-05T14:21:25.441Z,97697.69
2017-10-05T14:23:52.972Z,97696.36
2017-10-05T14:26:20.486Z,97705.37
2017-10-05T14:28:48.016Z,97694.45
2017-10-05T14:31:15.535Z,97693.66
2017-10-05T14:33:43.063Z,97701.72
2017-10-05T14:36:10.609Z,97703.52
2017-10-05T14:38:38.264Z,97721.05
2017-10-05T14:41:05.767Z,97713.06
2017-10-05T14:43:33.287Z,97721.16
2017-10-05T14:46:00.800Z,97722.58
2017-10-05T14:48:28.307Z,97716.36
2017-10-05T14:50:55.883Z,97718.96
2017-10-05T14:53:23.404Z,97726.73
2017-10-05T14:55:50.934Z,97721.06
2017-10-05T14:58:18.452Z,97727.28
2017-10-05T15:00:45.958Z,97732.16
2017-10-05T15:03:13.484Z,97744.14
2017-10-05T15:05:41.006Z,97730.84
2017-10-05T15:08:08.545Z,97736.67
2017-10-05T15:10:36.055Z,97728.75
2017-10-05T15:13:03.550Z,97732.03
2017-10-05T15:15:31.056Z,97729.91
2017-10-05T15:17:58.584Z,97743.10
2017-10-05T15:20:26.243Z,97739.56
2017-10-05T15:22:53.764Z,97734.98
2017-10-05T15:25:21.300Z,97742.06
2017-10-05T15:27:48.818Z,97748.09
2017-10-05T15:30:16.368Z,97741.74
2017-10-05T15:32:43.898Z,97736.59
2017-10-05T15:35:11.422Z,97740.09
2017-10-05T15:37:39.035Z,97742.02
2017-10-05T15:40:06.555Z,97741.33
2017-10-05T15:42:34.072Z,97746.72
2017-10-05T15:45:01.579Z,97748.62
2017-10-05T15:47:29.137Z,97747.95
2017-10-05T15:49:56.640Z,97744.41
2017-10-05T15:52:24.196Z,97748.14
2017-10-05T15:54:51.712Z,97747.63
2017-10-05T15:57:19.226Z,97752.66
2017-10-05T15:59:46.751Z,97751.23
2017-10-05T16:02:14.315Z,97748.25
2017-10-05T16:04:41.814Z,97753.34
2017-10-05T16:07:09.376Z,97747.64
2017-10-05T16:09:36.895Z,97748.55
2017-10-05T16:12:04.405Z,97763.23
2017-10-05T16:14:32.273Z,97769.26
2017-10-05T16:16:59.789Z,97768.50
2017-10-05T16:19:27.305Z,97776.39
2017-10-05T16:21:54.846Z,97776.33
2017-10-05T16:24:22.507Z,97779.05
2017-10-05T16:26:50.038Z,97786.34
2017-10-05T16:29:17.582Z,97797.98
2017-10-05T16:31:45.095Z,97796.89
2017-10-05T16:34:12.595Z,97795.38
2017-10-05T16:36:40.115Z,97795.78
2017-10-05T16:39:07.631Z,97795.38
2017-10-05T16:41:35.154Z,97800.02
2017-10-05T16:44:02.688Z,97794.11
2017-10-05T16:46:30.202Z,97802.84
2017-10-05T16:48:57.736Z,97805.89
2017-10-05T16:51:25.257Z,97802.64
2017-10-05T16:53:52.771Z,97806.28
2017-10-05T16:56:20.279Z,97809.05
2017-10-05T16:58:47.806Z,97809.47
2017-10-05T17:01:15.351Z,97819.70
2017-10-05T17:03:42.934Z,97813.56
2017-10-05T17:06:10.451Z,97816.94
2017-10-05T17:08:37.959Z,97819.00
2017-10-05T17:11:05.494Z,97824.35
2017-10-05T17:13:33.044Z,97819.73
2017-10-05T17:16:00.540Z,97827.42
2017-10-05T17:18:28.058Z,97840.34
2017-10-05T17:20:55.644Z,97837.74
2017-10-05T17:23:23.180Z,97844.70
2017-10-05T17:25:50.707Z,97842.66
2017-10-05T17:28:18.238Z,97854.59
2017-10-05T17:30:45.779Z,97857.92
2017-10-05T17:33:13.306Z,97860.49
2017-10-05T17:35:40.896Z,97864.97
2017-10-05T17:38:08.420Z,97861.52
2017-10-05T17:40:35.941Z,97867.69
2017-10-05T17:43:03.468Z,97869.30
2017-10-05T17:45:31.003Z,97873.60
2017-10-05T17:47:58.517Z,97874.18
2017-10-05T17:50:26.065Z,97873.70
2017-10-05T17:52:53.640Z,97882.52
2017-10-05T17:55:21.215Z,97881.66
2017-10-05T17:57:48.749Z,97887.97
2017-10-05T18:00:16.267Z,97888.27
2017-10-05T18:02:43.843Z,97901.03
2017-10-05T18:05:11.700Z,97906.45
2017-10-05T18:07:39.382Z,97952.20
2017-10-05T18:10:07.252Z,97968.59
2017-10-05T18:12:35.467Z,97965.27
2017-10-05T18:15:03.856Z,97953.84
2017-10-05T18:17:31.403Z,97960.13
2017-10-05T18:19:58.908Z,97970.52
2017-10-05T18:22:26.603Z,97964.61
2017-10-05T18:24:54.137Z,97968.58
2017-10-05T18:27:21.778Z,97976.09
2017-10-05T18:29:49.282Z,97986.42
2017-10-05T18:32:17.744Z,97986.86
2017-10-05T18:34:45.312Z,97990.27
2017-10-05T18:37:12.855Z,97998.25
2017-10-05T18:39:40.378Z,97988.87
2017-10-05T18:42:07.892Z,97995.41
2017-10-05T18:44:35.419Z,97993.45
2017-10-05T18:47:02.970Z,98001.38
2017-10-05T18:49:30.511Z,98001.88
2017-10-05T18:51:58.060Z,97994.44
2017-10-05T18:54:25.624Z,97993.97
2017-10-05T18:56:53.244Z,97993.75
2017-10-05T18:59:20.777Z,97996.31
2017-10-05T19:01:48.352Z,98000.91
2017-10-05T19:04:15.864Z,98002.66
2017-10-05T19:06:43.379Z,98007.81
2017-10-05T19:09:10.914Z,98012.47
2017-10-05T19:11:38.503Z,98008.25
2017-10-05T19:14:06.094Z,98003.05
2017-10-05T19:16:33.656Z,98011.20
2017-10-05T19:19:01.220Z,98005.39
2017-10-05T19:21:28.755Z,98012.22
2017-10-05T19:23:56.268Z,98009.44
2017-10-05T19:26:23.925Z,98006.27
2017-10-05T19:28:51.494Z,98029.70
2017-10-05T19:31:19.003Z,98037.86
2017-10-05T19:33:46.641Z,98034.44
2017-10-05T19:36:14.159Z,98033.94
2017-10-05T19:38:41.686Z,98028.78
2017-10-05T19:41:09.220Z,98037.07
2017-10-05T19:43:36.818Z,98049.45
2017-10-05T19:46:04.375Z,98058.02
2017-10-05T19:48:31.931Z,98075.89
2017-10-05T19:50:59.444Z,98076.52
2017-10-05T19:53:27.021Z,98075.72
2017-10-05T19:55:54.716Z,98079.33
2017-10-05T19:58:22.236Z,98085.95
2017-10-05T20:00:49.820Z,98095.86
2017-10-05T20:03:17.354Z,98094.41
2017-10-05T20:05:44.890Z,98103.33
2017-10-05T20:08:12.419Z,98100.25
2017-10-05T20:10:39.936Z,98081.31
2017-10-05T20:13:07.526Z,98092.61
2017-10-05T20:15:35.119Z,98102.98
2017-10-05T20:18:08.227Z,98095.57
2017-10-05T20:20:50.262Z,98110.85
2017-10-05T20:26:24.710Z,98117.03
2017-10-05T20:28:53.700Z,98130.80
2017-10-05T20:31:26.923Z,98133.87
2017-10-05T20:33:54.465Z,98119.19
2017-10-05T20:36:22.000Z,98123.52
2017-10-05T20:38:49.528Z,98126.86
2017-10-05T20:41:17.069Z,98125.56
2017-10-05T20:43:44.575Z,98142.23
2017-10-05T20:46:12.099Z,98137.74
2017-10-05T20:48:39.610Z,98135.33
2017-10-05T20:51:07.115Z,98139.14
2017-10-05T20:53:34.653Z,98140.39
2017-10-05T20:56:02.160Z,98139.53
2017-10-05T20:58:29.692Z,98135.94
2017-10-05T21:00:57.200Z,98147.72
2017-10-05T21:03:24.725Z,98142.09
2017-10-05T21:05:52.303Z,98136.87
2017-10-05T21:08:19.922Z,98137.48
2017-10-05T21:10:47.424Z,98136.02
2017-10-05T21:13:14.952Z,98131.03
2017-10-05T21:15:42.463Z,98130.72
2017-10-05T21:18:10.014Z,98131.92
2017-10-05T21:20:37.565Z,98132.97
2017-10-05T21:23:05.062Z,98132.05
2017-10-05T21:25:32.602Z,98145.04
2017-10-05T21:28:00.140Z,98139.80
2017-10-05T21:30:27.666Z,98137.15
2017-10-05T21:32:55.177Z,98133.72
2017-10-05T21:35:22.689Z,98132.23
2017-10-05T21:37:50.223Z,98131.09
2017-10-05T21:40:17.914Z,98127.52
2017-10-05T21:42:45.482Z,98128.50
2017-10-05T21:45:13.026Z,98130.06
2017-10-05T21:47:40.559Z,98135.25
2017-10-05T21:50:08.067Z,98135.02
2017-10-05T21:52:35.614Z,98133.58
2017-10-05T21:55:03.174Z,98136.13
2017-10-05T21:57:30.730Z,98133.72
2017-10-05T21:59:58.292Z,98124.19
2017-10-05T22:02:25.956Z,98123.88
2017-10-05T22:04:53.502Z,98117.31
2017-10-05T22:07:21.035Z,98121.56
2017-10-05T22:09:48.584Z,98124.69
2017-10-05T22:12:16.291Z,98122.55
2017-10-05T22:14:43.849Z,98129.96
2017-10-05T22:17:11.405Z,98130.70
2017-10-05T22:19:38.969Z,98129.84
2017-10-05T22:22:06.539Z,98130.60
2017-10-05T22:24:34.092Z,98130.53
2017-10-05T22:27:01.635Z,98128.26
2017-10-05T22:29:29.191Z,98128.73
2017-10-05T22:31:56.768Z,98129.81
2017-10-05T22:34:24.305Z,98127.95
2017-10-05T22:36:51.854Z,98134.95
2017-10-05T22:39:19.383Z,98132.19
2017-10-05T22:41:46.953Z,98135.74
2017-10-05T22:44:14.494Z,98140.67
2017-10-05T22:46:42.029Z,98142.60
2017-10-05T22:49:09.564Z,98148.67
2017-10-05T22:51:37.121Z,98149.64
2017-10-05T22:54:04.661Z,98154.70
2017-10-05T22:56:32.194Z,98148.95
2017-10-05T22:58:59.737Z,98147.59
2017-10-05T23:01:27.274Z,98144.73
2017-10-05T23:03:54.808Z,98145.58
2017-10-05T23:06:22.345Z,98145.28
2017-10-05T23:08:49.879Z,98143.41
2017-10-05T23:11:17.508Z,98140.72
2017-10-05T23:13:45.052Z,98146.41
2017-10-05T23:16:12.594Z,98141.64
2017-10-05T23:18:40.173Z,98148.47
2017-10-05T23:21:07.713Z,98142.89
2017-10-05T23:23:35.256Z,98147.88
2017-10-05T23:26:02.808Z,98145.73
2017-10-05T23:28:30.347Z,98143.73
2017-10-05T23:30:57.898Z,98144.04
2017-10-05T23:33:25.454Z,98144.62
2017-10-05T23:35:53.009Z,98139.90
2017-10-05T23:38:20.544Z,98136.80
2017-10-05T23:40:48.088Z,98139.76
2017-10-05T23:43:15.639Z,98142.29
2017-10-05T23:45:43.171Z,98134.47
2017-10-05T23:48:10.712Z,98137.80
2017-10-05T23:50:38.260Z,98141.70
2017-10-05T23:53:05.803Z,98137.48
2017-10-05T23:55:33.417Z,98144.92
2017-10-05T23:58:00.953Z,98143.36
